createdAt,value
2019-02-19T00:04:51.177Z,9.30
2019-02-19T00:09:56.319Z,9.27
2019-02-19T00:15:08.013Z,9.24
2019-02-19T00:20:08.553Z,9.17
2019-02-19T00:25:13.856Z,9.19
2019-02-19T00:30:19.305Z,9.19
2019-02-19T00:35:24.423Z,9.20
2019-02-19T00:40:29.552Z,9.07
2019-02-19T00:45:34.711Z,8.97
2019-02-19T00:50:39.837Z,8.94
2019-02-19T00:55:44.931Z,8.83
2019-02-19T01:00:49.959Z,8.89
2019-02-19T01:05:55.105Z,8.84
2019-02-19T01:11:00.165Z,8.81
2019-02-19T01:16:05.533Z,8.77
2019-02-19T01:21:10.777Z,8.71
2019-02-19T01:26:15.878Z,8.71
2019-02-19T01:31:21.003Z,8.63
2019-02-19T01:36:26.145Z,8.58
2019-02-19T01:41:31.275Z,8.56
2019-02-19T01:46:36.296Z,8.39
2019-02-19T01:51:41.363Z,8.40
2019-02-19T01:56:46.801Z,8.49
2019-02-19T02:01:51.900Z,8.43
2019-02-19T02:06:56.983Z,8.36
2019-02-19T02:12:02.011Z,8.28
2019-02-19T02:17:08.162Z,8.22
2019-02-19T02:22:13.169Z,8.18
2019-02-19T02:27:18.558Z,8.23
2019-02-19T02:32:24.154Z,8.18
2019-02-19T02:37:29.222Z,8.26
2019-02-19T02:42:34.407Z,8.33
2019-02-19T02:47:39.555Z,8.38
2019-02-19T02:52:44.658Z,8.40
2019-02-19T02:57:49.679Z,8.36
2019-02-19T03:02:54.739Z,8.44
2019-02-19T03:08:03.523Z,8.48
2019-02-19T03:13:15.003Z,8.47
2019-02-19T03:18:20.068Z,8.39
2019-02-19T03:23:25.121Z,8.25
2019-02-19T03:28:31.153Z,8.23
2019-02-19T03:33:36.193Z,8.11
2019-02-19T03:38:41.549Z,8.04
2019-02-19T03:43:47.049Z,8.10
2019-02-19T03:48:52.158Z,8.04
2019-02-19T03:53:57.229Z,7.93
2019-02-19T03:59:02.318Z,7.96
2019-02-19T04:04:07.331Z,7.94
2019-02-19T04:09:12.432Z,7.83
2019-02-19T04:14:26.621Z,7.78
2019-02-19T04:19:31.784Z,7.77
2019-02-19T04:24:37.473Z,7.73
2019-02-19T04:29:42.603Z,7.75
2019-02-19T04:34:47.637Z,7.59
2019-02-19T04:39:52.739Z,7.53
2019-02-19T04:44:58.207Z,7.54
2019-02-19T04:50:05.268Z,7.42
2019-02-19T04:55:10.300Z,7.33
2019-02-19T05:00:15.374Z,7.32
2019-02-19T05:05:20.440Z,7.33
2019-02-19T05:10:25.614Z,7.35
2019-02-19T05:15:30.925Z,7.43
2019-02-19T05:20:39.141Z,7.40
2019-02-19T05:25:44.285Z,7.34
2019-02-19T05:30:49.743Z,7.25
2019-02-19T05:35:54.907Z,7.22
2019-02-19T05:40:59.884Z,7.16
2019-02-19T05:46:05.111Z,7.08
2019-02-19T05:51:10.135Z,7.07
2019-02-19T05:56:15.631Z,7.09
2019-02-19T06:01:21.654Z,7.04
2019-02-19T06:06:26.799Z,7.03
2019-02-19T06:11:32.703Z,7.07
2019-02-19T06:16:38.085Z,7.14
2019-02-19T06:21:43.591Z,7.19
2019-02-19T06:26:49.673Z,7.20
2019-02-19T06:31:59.495Z,7.17
2019-02-19T06:37:05.208Z,7.14
2019-02-19T06:42:11.747Z,7.13
2019-02-19T06:47:18.949Z,7.20
2019-02-19T06:52:24.070Z,7.17
2019-02-19T06:57:29.254Z,7.14
2019-02-19T07:02:50.127Z,7.22
2019-02-19T07:07:55.335Z,7.22
2019-02-19T07:13:00.726Z,7.29
2019-02-19T07:18:05.894Z,7.31
2019-02-19T07:23:11.138Z,7.31
2019-02-19T07:28:16.563Z,7.33
2019-02-19T07:33:21.764Z,7.34
2019-02-19T07:38:27.805Z,7.39
2019-02-19T07:43:32.979Z,7.45
2019-02-19T07:48:39.780Z,7.56
2019-02-19T07:53:54.015Z,7.59
2019-02-19T07:58:59.641Z,7.73
2019-02-19T08:04:05.311Z,7.73
2019-02-19T08:09:12.744Z,8.06
2019-02-19T08:14:17.921Z,8.06
2019-02-19T08:19:23.089Z,8.09
2019-02-19T08:24:28.205Z,8.18
2019-02-19T08:29:33.405Z,8.38
2019-02-19T08:34:38.517Z,8.59
2019-02-19T08:39:43.685Z,8.76
2019-02-19T08:44:49.963Z,8.72
2019-02-19T08:49:55.025Z,8.88
2019-02-19T08:55:00.347Z,8.95
2019-02-19T09:00:07.245Z,9.12
2019-02-19T09:05:13.660Z,9.19
2019-02-19T09:10:18.844Z,9.35
2019-02-19T09:15:23.972Z,9.56
2019-02-19T09:20:29.179Z,9.68
2019-02-19T09:25:35.243Z,9.84
2019-02-19T09:30:40.459Z,10.02
2019-02-19T09:35:45.671Z,10.28
2019-02-19T09:40:50.991Z,10.25
2019-02-19T09:45:56.127Z,10.17
2019-02-19T09:51:01.543Z,10.03
2019-02-19T09:56:06.683Z,9.69
2019-02-19T10:01:11.853Z,9.56
2019-02-19T10:06:17.078Z,9.62
2019-02-19T10:11:22.341Z,9.69
2019-02-19T10:16:28.319Z,9.84
2019-02-19T10:21:33.475Z,9.67
2019-02-19T10:26:40.672Z,9.61
2019-02-19T10:31:46.057Z,9.50
2019-02-19T10:36:51.161Z,9.44
2019-02-19T10:41:56.273Z,9.47
2019-02-19T10:47:01.327Z,9.53
2019-02-19T10:52:06.468Z,9.45
2019-02-19T10:57:11.687Z,9.40
2019-02-19T11:02:16.964Z,9.40
2019-02-19T11:07:22.117Z,9.30
2019-02-19T11:12:27.249Z,9.31
2019-02-19T11:17:32.306Z,9.30
2019-02-19T11:22:37.532Z,9.37
2019-02-19T11:27:42.657Z,9.28
2019-02-19T11:32:48.662Z,9.22
2019-02-19T11:37:53.891Z,9.28
2019-02-19T11:42:59.356Z,9.37
2019-02-19T11:48:04.470Z,9.26
2019-02-19T11:53:09.716Z,9.23
2019-02-19T11:58:14.797Z,9.26
2019-02-19T12:03:24.992Z,9.43
2019-02-19T12:08:38.655Z,9.44
2019-02-19T12:13:36.996Z,9.43
2019-02-19T12:18:46.189Z,9.43
2019-02-19T12:23:49.218Z,9.35
2019-02-19T12:28:54.549Z,9.39
2019-02-19T12:34:00.528Z,9.37
2019-02-19T12:39:06.265Z,9.39
2019-02-19T12:44:12.097Z,9.45
2019-02-19T12:49:17.418Z,9.42
2019-02-19T12:54:22.868Z,9.44
2019-02-19T12:59:28.135Z,9.42
2019-02-19T13:04:33.407Z,9.29
2019-02-19T13:09:38.499Z,9.27
2019-02-19T13:14:48.654Z,9.29
2019-02-19T13:19:54.830Z,9.27
2019-02-19T13:24:59.999Z,9.27
2019-02-19T13:30:10.523Z,9.34
2019-02-19T13:35:16.403Z,9.44
2019-02-19T13:40:21.889Z,9.52
2019-02-19T13:45:27.746Z,9.57
2019-02-19T13:50:32.840Z,9.57
2019-02-19T13:55:41.111Z,9.82
2019-02-19T14:00:47.412Z,10.07
2019-02-19T14:05:54.005Z,11.10
2019-02-19T14:10:59.200Z,12.01
2019-02-19T14:16:12.540Z,12.30
2019-02-19T14:21:44.199Z,12.42
2019-02-19T14:27:06.893Z,11.65
2019-02-19T14:32:24.619Z,11.17
2019-02-19T14:37:47.431Z,10.91
2019-02-19T14:43:20.409Z,10.67
2019-02-19T14:48:47.281Z,10.65
2019-02-19T14:54:17.153Z,10.57
2019-02-19T14:59:41.185Z,10.56
2019-02-19T15:05:04.437Z,10.44
2019-02-19T15:10:28.271Z,10.39
2019-02-19T15:15:51.003Z,10.41
2019-02-19T15:21:18.069Z,10.28
2019-02-19T15:26:42.665Z,10.23
2019-02-19T15:32:06.538Z,10.23
2019-02-19T15:37:34.757Z,10.28
2019-02-19T15:42:59.355Z,10.20
2019-02-19T15:48:36.105Z,10.11
2019-02-19T15:54:02.990Z,10.04
2019-02-19T15:59:33.203Z,9.91
2019-02-19T16:04:45.184Z,9.86
2019-02-19T16:10:02.434Z,9.80
2019-02-19T16:15:42.431Z,9.62
2019-02-19T16:20:59.596Z,9.54
2019-02-19T16:26:26.697Z,9.43
2019-02-19T16:31:45.473Z,9.38
2019-02-19T16:37:10.388Z,9.32
2019-02-19T16:42:47.692Z,9.32
2019-02-19T16:48:17.793Z,9.21
2019-02-19T16:53:40.128Z,9.15
2019-02-19T16:58:52.782Z,9.13
2019-02-19T17:04:04.208Z,9.09
2019-02-19T17:09:27.545Z,9.06
2019-02-19T17:14:44.399Z,9.07
2019-02-19T17:20:26.193Z,9.08
2019-02-19T17:25:30.623Z,9.09
2019-02-19T17:31:06.648Z,9.09
2019-02-19T17:36:23.528Z,9.03
2019-02-19T17:41:49.000Z,9.06
2019-02-19T17:47:07.986Z,8.96
2019-02-19T17:52:30.682Z,8.91
2019-02-19T17:57:54.888Z,8.84
2019-02-19T18:03:24.821Z,8.79
2019-02-19T18:08:43.921Z,8.72
2019-02-19T18:14:08.284Z,8.63
2019-02-19T18:19:13.920Z,8.62
2019-02-19T18:24:19.544Z,8.67
2019-02-19T18:29:25.022Z,8.63
2019-02-19T18:34:30.550Z,8.63
2019-02-19T18:39:37.175Z,8.60
2019-02-19T18:44:42.863Z,8.65
2019-02-19T18:49:48.474Z,8.64
2019-02-19T18:54:55.315Z,8.59
2019-02-19T19:00:00.658Z,8.63
2019-02-19T19:05:06.489Z,8.60
2019-02-19T19:10:16.912Z,8.56
2019-02-19T19:15:22.316Z,8.46
2019-02-19T19:20:27.965Z,8.32
2019-02-19T19:25:33.502Z,8.26
2019-02-19T19:30:38.945Z,8.20
2019-02-19T19:35:46.138Z,8.21
2019-02-19T19:40:51.676Z,8.20
2019-02-19T19:45:56.942Z,8.18
2019-02-19T19:51:03.412Z,8.24
2019-02-19T19:56:21.912Z,8.24
2019-02-19T20:01:37.113Z,8.27
2019-02-19T20:06:43.682Z,8.21
2019-02-19T20:11:49.030Z,8.11
2019-02-19T20:16:55.080Z,8.05
2019-02-19T20:22:00.460Z,8.02
2019-02-19T20:27:09.716Z,8.07
2019-02-19T20:32:14.936Z,8.01
2019-02-19T20:37:24.020Z,8.01
2019-02-19T20:42:30.354Z,7.99
2019-02-19T20:47:39.504Z,7.90
2019-02-19T20:52:46.942Z,7.85
2019-02-19T20:57:59.559Z,7.82
2019-02-19T21:03:06.056Z,7.72
2019-02-19T21:08:13.330Z,7.62
2019-02-19T21:13:19.114Z,7.59
2019-02-19T21:18:24.517Z,7.53
2019-02-19T21:23:32.479Z,7.47
2019-02-19T21:28:37.900Z,7.47
2019-02-19T21:33:44.790Z,7.48
2019-02-19T21:38:53.384Z,7.45
2019-02-19T21:44:01.939Z,7.44
2019-02-19T21:49:13.664Z,7.48
2019-02-19T21:54:21.034Z,7.45
2019-02-19T21:59:26.547Z,7.43
2019-02-19T22:04:32.706Z,7.39
2019-02-19T22:09:38.263Z,7.40
2019-02-19T22:14:45.588Z,7.33
2019-02-19T22:19:51.446Z,7.28
2019-02-19T22:25:00.299Z,7.23
2019-02-19T22:30:05.964Z,7.28
2019-02-19T22:35:16.926Z,7.25
2019-02-19T22:40:24.660Z,7.29
2019-02-19T22:45:29.822Z,7.33
2019-02-19T22:50:38.425Z,7.21
2019-02-19T22:56:06.112Z,7.13
2019-02-19T23:01:29.871Z,7.06
2019-02-19T23:06:35.512Z,6.84
2019-02-19T23:11:40.560Z,6.74
2019-02-19T23:16:46.538Z,6.68
2019-02-19T23:21:51.618Z,6.73
2019-02-19T23:26:58.723Z,6.76
2019-02-19T23:32:03.874Z,6.72
2019-02-19T23:37:15.480Z,6.73
2019-02-19T23:42:20.510Z,6.63
2019-02-19T23:47:25.580Z,6.67
2019-02-19T23:52:30.884Z,6.57
2019-02-19T23:57:36.244Z,6.42
